createdAt,value
2023-04-15T00:00:35.687Z,94762.2344
2023-04-15T00:01:36.756Z,94760.9219
2023-04-15T00:02:37.890Z,94761.3047
2023-04-15T00:03:39.123Z,94759.8438
2023-04-15T00:04:39.857Z,94759.3047
2023-04-15T00:05:40.935Z,94760.6172
2023-04-15T00:06:41.934Z,94761.7656
2023-04-15T00:07:43.720Z,94761.6953
2023-04-15T00:08:43.875Z,94761.7656
2023-04-15T00:09:44.952Z,94760.3828
2023-04-15T00:10:46.017Z,94760.3047
2023-04-15T00:11:47.029Z,94762.9219
2023-04-15T00:12:48.059Z,94760.3828
2023-04-15T00:13:49.104Z,94759.4609
2023-04-15T00:14:50.185Z,94757.8438
2023-04-15T00:15:51.240Z,94757.2344
2023-04-15T00:16:52.340Z,94756.2344
2023-04-15T00:17:53.286Z,94755.7656
2023-04-15T00:18:54.343Z,94755.0000
2023-04-15T00:19:55.358Z,94755.3828
2023-04-15T00:20:56.464Z,94755.3828
2023-04-15T00:21:57.453Z,94757.0781
2023-04-15T00:22:58.506Z,94756.8438
2023-04-15T00:23:59.533Z,94757.0781
2023-04-15T00:25:00.577Z,94756.0781
2023-04-15T00:26:01.667Z,94756.3047
2023-04-15T00:27:02.698Z,94757.3828
2023-04-15T00:28:03.700Z,94756.9219
2023-04-15T00:29:04.749Z,94756.3047
2023-04-15T00:30:05.783Z,94755.0781
2023-04-15T00:31:06.884Z,94752.0781
2023-04-15T00:32:07.900Z,94751.6953
2023-04-15T00:33:08.923Z,94749.2344
2023-04-15T00:34:09.988Z,94748.4609
2023-04-15T00:35:11.048Z,94748.0781
2023-04-15T00:36:12.071Z,94747.2344
2023-04-15T00:37:13.081Z,94748.0781
2023-04-15T00:38:14.157Z,94746.8438
2023-04-15T00:39:15.239Z,94745.9219
2023-04-15T00:40:16.230Z,94745.0000
2023-04-15T00:41:17.326Z,94743.5391
2023-04-15T00:42:18.364Z,94742.6953
2023-04-15T00:43:19.365Z,94742.5391
2023-04-15T00:44:20.399Z,94741.3828
2023-04-15T00:45:21.434Z,94740.7656
2023-04-15T00:46:22.542Z,94739.6172
2023-04-15T00:47:23.621Z,94739.3828
2023-04-15T00:48:24.568Z,94739.0781
2023-04-15T00:49:25.624Z,94738.3047
2023-04-15T00:50:26.693Z,94737.6953
2023-04-15T00:51:27.708Z,94737.3828
2023-04-15T00:52:28.825Z,94738.1562
2023-04-15T00:53:29.834Z,94739.9219
2023-04-15T00:54:30.843Z,94743.0000
2023-04-15T00:55:31.925Z,94744.1562
2023-04-15T00:56:32.987Z,94745.7656
2023-04-15T00:57:34.111Z,94745.0000
2023-04-15T00:58:35.143Z,94745.1562
2023-04-15T00:59:36.195Z,94745.5391
2023-04-15T01:00:37.230Z,94745.1562
2023-04-15T01:01:38.322Z,94745.0781
2023-04-15T01:02:39.598Z,94743.6172
2023-04-15T01:03:40.467Z,94742.5391
2023-04-15T01:04:41.393Z,94742.4609
2023-04-15T01:05:42.442Z,94742.2344
2023-04-15T01:06:43.534Z,94744.6172
2023-04-15T01:07:44.596Z,94745.0000
2023-04-15T01:08:45.626Z,94745.0000
2023-04-15T01:09:46.594Z,94744.0000
2023-04-15T01:10:47.666Z,94742.9219
2023-04-15T01:11:48.724Z,94743.0781
2023-04-15T01:12:49.733Z,94743.2344
2023-04-15T01:13:50.828Z,94743.3828
2023-04-15T01:14:51.833Z,94745.0000
2023-04-15T01:15:52.845Z,94746.4609
2023-04-15T01:16:53.860Z,94749.1562
2023-04-15T01:17:55.029Z,94751.3828
2023-04-15T01:18:55.947Z,94753.5391
2023-04-15T01:19:57.015Z,94754.3828
2023-04-15T01:20:58.031Z,94754.8438
2023-04-15T01:21:59.072Z,94757.0781
2023-04-15T01:23:00.263Z,94758.2344
2023-04-15T01:24:01.170Z,94759.2344
2023-04-15T01:25:02.202Z,94759.8438
2023-04-15T01:26:03.272Z,94760.6953
2023-04-15T01:27:04.278Z,94760.4609
2023-04-15T01:28:05.383Z,94760.3828
2023-04-15T01:29:06.344Z,94759.8438
2023-04-15T01:30:07.453Z,94759.1562
2023-04-15T01:31:08.518Z,94757.6953
2023-04-15T01:32:09.472Z,94758.6172
2023-04-15T01:33:10.531Z,94759.7656
2023-04-15T01:34:11.555Z,94760.0781
2023-04-15T01:35:12.608Z,94760.4609
2023-04-15T01:36:13.613Z,94761.3047
2023-04-15T01:37:14.650Z,94762.0781
2023-04-15T01:38:15.730Z,94762.5391
2023-04-15T01:39:16.829Z,94762.6172
2023-04-15T01:40:17.778Z,94762.9219
2023-04-15T01:41:18.833Z,94764.8438
2023-04-15T01:42:19.850Z,94766.0000
2023-04-15T01:43:20.926Z,94766.4609
2023-04-15T01:44:21.932Z,94767.0000
2023-04-15T01:45:22.951Z,94767.0781
2023-04-15T01:46:24.021Z,94766.4609
2023-04-15T01:47:25.072Z,94766.2344
2023-04-15T01:48:26.145Z,94766.2344
2023-04-15T01:49:27.127Z,94764.8438
2023-04-15T01:50:28.090Z,94763.3828
2023-04-15T01:51:29.144Z,94762.5391
2023-04-15T01:52:30.171Z,94763.2344
2023-04-15T01:53:31.226Z,94766.8438
2023-04-15T01:54:32.262Z,94767.3047
2023-04-15T01:55:33.318Z,94766.1562
2023-04-15T01:56:34.351Z,94765.0781
2023-04-15T01:57:35.372Z,94765.3828
2023-04-15T01:58:36.472Z,94765.6172
2023-04-15T01:59:37.473Z,94766.3828
2023-04-15T02:00:38.539Z,94766.0000
2023-04-15T02:01:39.573Z,94765.8438
2023-04-15T02:02:40.746Z,94765.8438
2023-04-15T02:03:41.781Z,94765.6172
2023-04-15T02:04:42.685Z,94765.0781
2023-04-15T02:05:43.702Z,94764.6172
2023-04-15T02:06:44.731Z,94762.3828
2023-04-15T02:07:45.769Z,94761.3828
2023-04-15T02:08:46.869Z,94760.8438
2023-04-15T02:09:47.876Z,94760.7656
2023-04-15T02:10:48.915Z,94759.5391
2023-04-15T02:11:49.977Z,94759.6953
2023-04-15T02:12:51.014Z,94761.3047
2023-04-15T02:13:52.096Z,94760.4609
2023-04-15T02:14:53.102Z,94759.8438
2023-04-15T02:15:54.140Z,94760.3047
2023-04-15T02:16:55.242Z,94760.8438
2023-04-15T02:17:56.228Z,94760.9219
2023-04-15T02:18:57.283Z,94761.5391
2023-04-15T02:19:58.280Z,94762.2344
2023-04-15T02:20:59.393Z,94762.5391
2023-04-15T02:22:00.372Z,94765.0000
2023-04-15T02:23:01.424Z,94766.3828
2023-04-15T02:24:02.500Z,94768.2344
2023-04-15T02:25:03.531Z,94768.3047
2023-04-15T02:26:04.539Z,94767.9219
2023-04-15T02:27:05.556Z,94767.8438
2023-04-15T02:28:06.622Z,94769.3828
2023-04-15T02:29:07.661Z,94770.2344
2023-04-15T02:30:08.683Z,94768.3828
2023-04-15T02:31:09.775Z,94768.0781
2023-04-15T02:32:10.914Z,94768.3828
2023-04-15T02:33:11.838Z,94768.6172
2023-04-15T02:34:12.898Z,94767.3828
2023-04-15T02:35:13.996Z,94767.1562
2023-04-15T02:36:14.961Z,94765.3828
2023-04-15T02:37:16.017Z,94765.8438
2023-04-15T02:38:17.089Z,94765.0000
2023-04-15T02:39:18.085Z,94764.0000
2023-04-15T02:40:19.239Z,94765.3828
2023-04-15T02:41:20.321Z,94766.0000
2023-04-15T02:42:21.314Z,94765.0000
2023-04-15T02:43:22.356Z,94765.3047
2023-04-15T02:44:23.378Z,94766.1562
2023-04-15T02:45:24.505Z,94767.9219
2023-04-15T02:46:25.588Z,94768.2344
2023-04-15T02:47:26.593Z,94768.4609
2023-04-15T02:48:27.557Z,94765.6953
2023-04-15T02:49:28.752Z,94763.6953
2023-04-15T02:50:30.071Z,94763.5391
2023-04-15T02:51:30.870Z,94765.0781
2023-04-15T02:52:31.754Z,94765.1562
2023-04-15T02:53:32.831Z,94765.6172
2023-04-15T02:54:33.840Z,94764.3828
2023-04-15T02:55:34.916Z,94764.3047
2023-04-15T02:56:35.912Z,94764.3828
2023-04-15T02:57:36.989Z,94763.7656
2023-04-15T02:58:37.995Z,94764.3828
2023-04-15T02:59:39.037Z,94765.4609
2023-04-15T03:00:40.151Z,94766.0781
2023-04-15T03:01:41.088Z,94768.4609
2023-04-15T03:02:42.461Z,94770.3828
2023-04-15T03:03:43.380Z,94771.0781
2023-04-15T03:04:44.350Z,94772.0781
2023-04-15T03:05:45.410Z,94772.6953
2023-04-15T03:06:46.369Z,94772.5391
2023-04-15T03:07:47.424Z,94771.5391
2023-04-15T03:08:48.549Z,94769.8438
2023-04-15T03:09:49.515Z,94769.2344
2023-04-15T03:10:50.572Z,94766.9219
2023-04-15T03:11:51.573Z,94766.0000
2023-04-15T03:12:52.619Z,94764.4609
2023-04-15T03:13:53.689Z,94764.9219
2023-04-15T03:14:54.718Z,94766.0781
2023-04-15T03:15:55.887Z,94768.3047
2023-04-15T03:16:56.830Z,94767.8438
2023-04-15T03:17:57.930Z,94767.1562
2023-04-15T03:18:59.020Z,94767.0000
2023-04-15T03:19:59.964Z,94767.0781
2023-04-15T03:21:01.027Z,94765.4609
2023-04-15T03:22:02.016Z,94764.6953
2023-04-15T03:23:03.058Z,94766.3047
2023-04-15T03:24:04.200Z,94768.1562
2023-04-15T03:25:05.145Z,94769.4609
2023-04-15T03:26:06.238Z,94770.4609
2023-04-15T03:27:07.294Z,94771.7656
2023-04-15T03:28:08.276Z,94769.6172
2023-04-15T03:29:09.318Z,94768.0781
2023-04-15T03:30:10.334Z,94765.4609
2023-04-15T03:31:11.458Z,94763.9219
2023-04-15T03:32:12.508Z,94762.6172
2023-04-15T03:33:13.400Z,94762.0781
2023-04-15T03:34:14.441Z,94761.5391
2023-04-15T03:35:15.491Z,94761.4609
2023-04-15T03:36:16.569Z,94760.5391
2023-04-15T03:37:17.574Z,94759.9219
2023-04-15T03:38:18.597Z,94759.3828
2023-04-15T03:39:19.651Z,94757.8438
2023-04-15T03:40:20.685Z,94758.3047
2023-04-15T03:41:21.756Z,94758.5391
2023-04-15T03:42:22.766Z,94759.8438
2023-04-15T03:43:23.778Z,94758.2344
2023-04-15T03:44:24.854Z,94756.4609
2023-04-15T03:45:25.855Z,94756.2344
2023-04-15T03:46:26.962Z,94754.7656
2023-04-15T03:47:27.971Z,94753.4609
2023-04-15T03:48:29.005Z,94755.0000
2023-04-15T03:49:30.025Z,94754.5391
2023-04-15T03:50:31.054Z,94752.4609
2023-04-15T03:51:32.126Z,94752.5391
2023-04-15T03:52:33.151Z,94752.4609
2023-04-15T03:53:34.187Z,94753.8438
2023-04-15T03:54:35.238Z,94754.2344
2023-04-15T03:55:36.297Z,94755.2344
2023-04-15T03:56:37.379Z,94754.6172
2023-04-15T03:57:38.390Z,94755.6953
2023-04-15T03:58:39.433Z,94755.9219
2023-04-15T03:59:40.476Z,94756.3828
2023-04-15T04:00:41.575Z,94757.7656
2023-04-15T04:01:42.688Z,94757.7656
2023-04-15T04:02:43.726Z,94757.8438
2023-04-15T04:03:44.813Z,94757.3828
2023-04-15T04:04:45.714Z,94758.6953
2023-04-15T04:05:46.754Z,94758.8438
2023-04-15T04:06:47.828Z,94759.8438
2023-04-15T04:07:48.821Z,94761.3047
2023-04-15T04:08:49.873Z,94759.2344
2023-04-15T04:09:50.934Z,94757.9219
2023-04-15T04:10:51.953Z,94758.4609
2023-04-15T04:11:53.033Z,94758.9219
2023-04-15T04:12:54.039Z,94759.0000
2023-04-15T04:13:55.133Z,94759.0781
2023-04-15T04:14:56.170Z,94758.6172
2023-04-15T04:15:57.334Z,94757.3047
2023-04-15T04:16:58.335Z,94755.7656
2023-04-15T04:17:59.326Z,94756.6172
2023-04-15T04:19:00.612Z,94758.0781
2023-04-15T04:20:01.381Z,94758.4609
2023-04-15T04:21:02.390Z,94758.9219
2023-04-15T04:22:03.516Z,94760.0781
2023-04-15T04:23:04.467Z,94760.4609
2023-04-15T04:24:05.672Z,94760.9219
2023-04-15T04:25:06.705Z,94760.5391
2023-04-15T04:26:07.772Z,94759.5391
2023-04-15T04:27:08.829Z,94762.4609
2023-04-15T04:28:09.837Z,94763.5391
2023-04-15T04:29:10.869Z,94762.4609
2023-04-15T04:30:11.933Z,94762.8438
2023-04-15T04:31:13.054Z,94763.4609
2023-04-15T04:32:14.123Z,94764.6172
2023-04-15T04:33:15.075Z,94765.3047
2023-04-15T04:34:16.074Z,94764.8438
2023-04-15T04:35:17.153Z,94765.7656
2023-04-15T04:36:18.375Z,94765.5391
2023-04-15T04:37:19.301Z,94766.1562
2023-04-15T04:38:20.281Z,94766.8438
2023-04-15T04:39:21.389Z,94767.3828
2023-04-15T04:40:22.371Z,94767.3047
2023-04-15T04:41:23.374Z,94766.7656
2023-04-15T04:42:24.545Z,94767.8438
2023-04-15T04:43:25.487Z,94768.2344
2023-04-15T04:44:26.649Z,94767.6953
2023-04-15T04:45:27.557Z,94766.5391
2023-04-15T04:46:28.634Z,94766.5391
2023-04-15T04:47:29.782Z,94765.9219
2023-04-15T04:48:30.705Z,94766.3047
2023-04-15T04:49:31.722Z,94766.0000
2023-04-15T04:50:32.771Z,94765.9219
2023-04-15T04:51:33.828Z,94765.6172
2023-04-15T04:52:34.975Z,94765.9219
2023-04-15T04:53:35.931Z,94765.3828
2023-04-15T04:54:36.972Z,94765.0000
2023-04-15T04:55:38.028Z,94765.5391
2023-04-15T04:56:39.070Z,94766.1562
2023-04-15T04:57:40.168Z,94766.3047
2023-04-15T04:58:41.108Z,94766.6172
2023-04-15T04:59:42.209Z,94768.4609
2023-04-15T05:00:43.199Z,94769.4609
2023-04-15T05:01:44.474Z,94769.1562
2023-04-15T05:02:45.515Z,94770.9219
2023-04-15T05:03:46.422Z,94771.6953
2023-04-15T05:04:47.365Z,94772.0000
2023-04-15T05:05:48.508Z,94771.6953
2023-04-15T05:06:49.533Z,94772.3047
2023-04-15T05:07:50.547Z,94776.0000
2023-04-15T05:08:51.537Z,94774.0000
2023-04-15T05:09:52.663Z,94773.3828
2023-04-15T05:10:53.616Z,94774.8438
2023-04-15T05:11:54.723Z,94775.1562
2023-04-15T05:12:55.805Z,94774.9219
2023-04-15T05:13:56.794Z,94776.1562
2023-04-15T05:14:57.829Z,94777.6953
2023-04-15T05:15:58.924Z,94779.0781
2023-04-15T05:17:00.454Z,94782.2344
2023-04-15T05:18:00.934Z,94784.0781
2023-04-15T05:19:02.179Z,94787.5391
2023-04-15T05:20:02.967Z,94789.6172
2023-04-15T05:21:04.035Z,94791.0000
2023-04-15T05:22:05.059Z,94792.4609
2023-04-15T05:23:06.159Z,94793.5391
2023-04-15T05:24:07.137Z,94793.6953
2023-04-15T05:25:08.190Z,94794.9219
2023-04-15T05:26:09.240Z,94794.9219
2023-04-15T05:27:10.261Z,94795.3047
2023-04-15T05:28:11.372Z,94795.3828
2023-04-15T05:29:12.349Z,94796.0781
2023-04-15T05:30:13.842Z,94794.7656
2023-04-15T05:31:14.513Z,94794.0000
2023-04-15T05:32:15.491Z,94795.0000
2023-04-15T05:33:16.603Z,94793.2344
2023-04-15T05:34:17.562Z,94792.5391
2023-04-15T05:35:18.640Z,94792.6172
2023-04-15T05:36:19.659Z,94792.9219
2023-04-15T05:37:20.700Z,94793.7656
2023-04-15T05:38:21.774Z,94793.7656
2023-04-15T05:39:22.775Z,94793.1562
2023-04-15T05:40:23.840Z,94793.0781
2023-04-15T05:41:24.878Z,94792.6953
2023-04-15T05:42:25.916Z,94792.6172
2023-04-15T05:43:26.993Z,94792.4609
2023-04-15T05:44:28.054Z,94792.8438
2023-04-15T05:45:29.059Z,94791.6172
2023-04-15T05:46:30.144Z,94791.2344
2023-04-15T05:47:31.147Z,94791.1562
2023-04-15T05:48:32.192Z,94792.5391
2023-04-15T05:49:33.185Z,94792.6953
2023-04-15T05:50:34.260Z,94793.6953
2023-04-15T05:51:35.297Z,94794.3047
2023-04-15T05:52:36.323Z,94794.7656
2023-04-15T05:53:37.452Z,94795.2344
2023-04-15T05:54:38.971Z,94796.4609
2023-04-15T05:55:39.478Z,94796.6172
2023-04-15T05:56:40.492Z,94795.4609
2023-04-15T05:57:41.574Z,94794.9219
2023-04-15T05:58:42.617Z,94795.3828
2023-04-15T05:59:43.614Z,94797.1562
2023-04-15T06:00:44.678Z,94798.6953
2023-04-15T06:01:45.710Z,94800.7656
2023-04-15T06:02:46.961Z,94801.3828
2023-04-15T06:03:47.938Z,94799.4609
2023-04-15T06:04:48.846Z,94799.3828
2023-04-15T06:05:49.894Z,94799.9219
2023-04-15T06:06:50.918Z,94801.3047
2023-04-15T06:07:52.017Z,94803.1562
2023-04-15T06:08:53.112Z,94802.6172
2023-04-15T06:09:54.129Z,94802.6172
2023-04-15T06:10:55.198Z,94802.8438
2023-04-15T06:11:56.220Z,94806.3047
2023-04-15T06:12:57.192Z,94808.0000
2023-04-15T06:13:58.352Z,94809.4609
2023-04-15T06:15:00.235Z,94810.3828
2023-04-15T06:16:00.429Z,94809.3047
2023-04-15T06:17:01.436Z,94808.8438
2023-04-15T06:18:02.540Z,94807.2344
2023-04-15T06:19:03.510Z,94807.3828
2023-04-15T06:20:04.468Z,94807.8438
2023-04-15T06:21:05.509Z,94807.6172
2023-04-15T06:22:06.560Z,94807.0781
2023-04-15T06:23:07.554Z,94806.7656
2023-04-15T06:24:08.704Z,94806.1562
2023-04-15T06:25:09.626Z,94803.6953
2023-04-15T06:26:10.747Z,94802.3828
2023-04-15T06:27:11.723Z,94802.7656
2023-04-15T06:28:12.752Z,94802.0000
2023-04-15T06:29:13.850Z,94800.3047
2023-04-15T06:30:14.827Z,94799.3047
2023-04-15T06:31:15.863Z,94799.9219
2023-04-15T06:32:16.949Z,94798.8438
2023-04-15T06:33:17.989Z,94798.6953
2023-04-15T06:34:19.014Z,94798.0781
2023-04-15T06:35:20.054Z,94798.4609
2023-04-15T06:36:21.076Z,94799.2344
2023-04-15T06:37:22.131Z,94799.0000
2023-04-15T06:38:23.151Z,94799.2344
2023-04-15T06:39:24.267Z,94800.4609
2023-04-15T06:40:25.303Z,94801.8438
2023-04-15T06:41:26.269Z,94802.2344
2023-04-15T06:42:27.307Z,94802.0781
2023-04-15T06:43:28.333Z,94802.7656
2023-04-15T06:44:29.403Z,94802.8438
2023-04-15T06:45:30.511Z,94804.8438
2023-04-15T06:46:31.471Z,94804.3047
2023-04-15T06:47:32.516Z,94805.3047
2023-04-15T06:48:33.510Z,94806.0000
2023-04-15T06:49:34.628Z,94805.6953
2023-04-15T06:50:35.662Z,94805.6953
2023-04-15T06:51:36.664Z,94807.6953
2023-04-15T06:52:37.706Z,94810.5391
2023-04-15T06:53:38.715Z,94810.3828
2023-04-15T06:54:39.818Z,94811.6172
2023-04-15T06:55:40.830Z,94810.9219
2023-04-15T06:56:41.813Z,94811.9219
2023-04-15T06:57:42.875Z,94812.3047
2023-04-15T06:58:43.947Z,94812.1562
2023-04-15T06:59:44.902Z,94812.3047
2023-04-15T07:00:45.957Z,94812.6172
2023-04-15T07:01:46.956Z,94812.3828
2023-04-15T07:02:48.056Z,94811.7656
2023-04-15T07:03:49.128Z,94812.4609
2023-04-15T07:04:50.149Z,94812.1562
2023-04-15T07:05:51.135Z,94812.9219
2023-04-15T07:06:52.223Z,94813.7656
2023-04-15T07:07:53.253Z,94814.3828
2023-04-15T07:08:54.288Z,94815.1562
2023-04-15T07:09:55.343Z,94813.4609
2023-04-15T07:10:56.359Z,94813.1562
2023-04-15T07:11:57.397Z,94813.7656
2023-04-15T07:12:58.401Z,94811.3828
2023-04-15T07:13:59.475Z,94810.0000
2023-04-15T07:15:00.516Z,94809.3047
2023-04-15T07:16:01.650Z,94809.7656
2023-04-15T07:17:02.608Z,94807.3047
2023-04-15T07:18:03.621Z,94807.2344
2023-04-15T07:19:04.817Z,94806.0781
2023-04-15T07:20:05.684Z,94805.8438
2023-04-15T07:21:06.710Z,94805.7656
2023-04-15T07:22:07.777Z,94805.8438
2023-04-15T07:23:08.982Z,94806.1562
2023-04-15T07:24:09.799Z,94806.0781
2023-04-15T07:25:11.183Z,94804.3047
2023-04-15T07:26:11.933Z,94804.6172
2023-04-15T07:27:12.944Z,94804.1562
2023-04-15T07:28:13.973Z,94801.7656
2023-04-15T07:29:15.020Z,94800.7656
2023-04-15T07:30:16.062Z,94799.5391
2023-04-15T07:31:17.184Z,94799.5391
2023-04-15T07:32:18.128Z,94798.9219
2023-04-15T07:33:19.171Z,94797.3047
2023-04-15T07:34:20.399Z,94798.1562
2023-04-15T07:35:21.233Z,94796.6172
2023-04-15T07:36:22.323Z,94795.9219
2023-04-15T07:37:23.332Z,94797.6953
2023-04-15T07:38:24.375Z,94797.0781
2023-04-15T07:39:25.411Z,94798.1562
2023-04-15T07:40:26.493Z,94796.8438
2023-04-15T07:41:27.572Z,94797.1562
2023-04-15T07:42:28.537Z,94795.9219
2023-04-15T07:43:29.595Z,94796.3828
2023-04-15T07:44:30.619Z,94795.7656
2023-04-15T07:45:31.680Z,94797.3828
2023-04-15T07:46:32.774Z,94797.9219
2023-04-15T07:47:33.787Z,94797.4609
2023-04-15T07:48:35.610Z,94798.6953
2023-04-15T07:49:35.916Z,94798.5391
2023-04-15T07:50:36.991Z,94798.2344
2023-04-15T07:51:38.069Z,94798.3047
2023-04-15T07:52:39.057Z,94797.7656
2023-04-15T07:53:40.118Z,94797.0000
2023-04-15T07:54:41.138Z,94796.0000
2023-04-15T07:55:42.184Z,94796.8438
2023-04-15T07:56:43.280Z,94798.1562
2023-04-15T07:57:44.214Z,94796.5391
2023-04-15T07:58:45.260Z,94796.7656
2023-04-15T07:59:46.299Z,94798.3828
2023-04-15T08:00:47.392Z,94797.6172
2023-04-15T08:01:48.477Z,94794.0781
2023-04-15T08:02:49.553Z,94794.5391
2023-04-15T08:03:50.671Z,94794.1562
2023-04-15T08:04:51.704Z,94794.6953
2023-04-15T08:05:52.619Z,94795.0781
2023-04-15T08:06:53.636Z,94796.5391
2023-04-15T08:07:54.641Z,94796.0000
2023-04-15T08:08:55.747Z,94796.9219
2023-04-15T08:09:56.680Z,94797.5391
2023-04-15T08:10:57.766Z,94799.0000
2023-04-15T08:11:58.837Z,94799.7656
2023-04-15T08:12:59.899Z,94799.6953
2023-04-15T08:14:00.835Z,94800.4609
2023-04-15T08:15:01.924Z,94798.7656
2023-04-15T08:16:03.005Z,94798.5391
2023-04-15T08:17:04.038Z,94801.5391
2023-04-15T08:18:05.020Z,94801.3047
2023-04-15T08:19:06.046Z,94801.6172
2023-04-15T08:20:07.082Z,94802.6953
2023-04-15T08:21:08.159Z,94803.0781
2023-04-15T08:22:15.371Z,94804.3828
2023-04-15T08:23:10.166Z,94805.0781
2023-04-15T08:24:11.261Z,94804.5391
2023-04-15T08:25:12.246Z,94804.1562
2023-04-15T08:26:13.388Z,94804.0000
2023-04-15T08:27:14.433Z,94804.3047
2023-04-15T08:28:15.410Z,94803.6953
2023-04-15T08:29:16.437Z,94804.5391
2023-04-15T08:30:17.479Z,94806.3047
2023-04-15T08:31:18.557Z,94806.3047
2023-04-15T08:32:19.636Z,94806.0781
2023-04-15T08:33:20.593Z,94806.5391
2023-04-15T08:34:21.626Z,94805.6953
2023-04-15T08:35:22.806Z,94805.8438
2023-04-15T08:36:23.736Z,94807.3828
2023-04-15T08:37:24.668Z,94808.3047
2023-04-15T08:38:25.710Z,94808.9219
2023-04-15T08:39:26.732Z,94810.3047
2023-04-15T08:40:27.795Z,94810.1562
2023-04-15T08:41:28.814Z,94809.1562
2023-04-15T08:42:29.915Z,94809.3828
2023-04-15T08:43:30.892Z,94809.5391
2023-04-15T08:44:31.972Z,94809.3047
2023-04-15T08:45:32.998Z,94809.6953
2023-04-15T08:46:34.032Z,94810.2344
2023-04-15T08:47:35.073Z,94812.9219
2023-04-15T08:48:36.057Z,94812.2344
2023-04-15T08:49:37.100Z,94811.4609
2023-04-15T08:50:38.142Z,94811.8438
2023-04-15T08:51:39.187Z,94812.3828
2023-04-15T08:52:40.261Z,94813.8438
2023-04-15T08:53:41.266Z,94814.7656
2023-04-15T08:54:42.308Z,94813.1562
2023-04-15T08:55:43.309Z,94812.6172
2023-04-15T08:56:44.414Z,94812.0781
2023-04-15T08:57:45.450Z,94811.7656
2023-04-15T08:58:46.465Z,94812.0781
2023-04-15T08:59:47.528Z,94811.6172
2023-04-15T09:00:48.650Z,94811.4609
2023-04-15T09:01:49.628Z,94812.2344
2023-04-15T09:02:50.730Z,94811.7656
2023-04-15T09:03:51.777Z,94814.6953
2023-04-15T09:04:52.921Z,94816.1562
2023-04-15T09:05:53.762Z,94817.1562
2023-04-15T09:06:54.782Z,94818.8438
2023-04-15T09:07:55.935Z,94822.1562
2023-04-15T09:08:56.861Z,94822.6172
2023-04-15T09:09:57.923Z,94822.6953
2023-04-15T09:10:58.990Z,94825.7656
2023-04-15T09:11:59.998Z,94825.7656
2023-04-15T09:13:01.089Z,94824.3047
2023-04-15T09:14:02.080Z,94824.1562
2023-04-15T09:15:03.141Z,94823.4609
2023-04-15T09:16:04.232Z,94825.2344
2023-04-15T09:17:05.295Z,94826.8438
2023-04-15T09:18:06.264Z,94828.5391
2023-04-15T09:19:07.265Z,94830.9219
2023-04-15T09:20:08.300Z,94830.9219
2023-04-15T09:21:09.638Z,94832.6953
2023-04-15T09:22:10.357Z,94833.6953
2023-04-15T09:23:11.484Z,94835.3828
2023-04-15T09:24:12.433Z,94836.8438
2023-04-15T09:25:13.514Z,94836.3047
2023-04-15T09:26:14.510Z,94838.1562
2023-04-15T09:27:15.544Z,94838.6172
2023-04-15T09:28:16.619Z,94838.6953
2023-04-15T09:29:17.622Z,94838.3828
2023-04-15T09:30:18.685Z,94839.6953
2023-04-15T09:31:19.747Z,94840.8438
2023-04-15T09:32:20.712Z,94842.0000
2023-04-15T09:33:21.906Z,94842.8438
2023-04-15T09:34:22.956Z,94841.4609
2023-04-15T09:35:23.929Z,94843.0000
2023-04-15T09:36:24.986Z,94842.3828
2023-04-15T09:37:32.395Z,94840.9219
2023-04-15T09:38:27.117Z,94840.0781
2023-04-15T09:39:28.113Z,94841.3047
2023-04-15T09:40:29.152Z,94843.3047
2023-04-15T09:41:30.199Z,94843.7656
2023-04-15T09:42:31.238Z,94845.0781
2023-04-15T09:43:32.292Z,94843.3047
2023-04-15T09:44:33.314Z,94844.9219
2023-04-15T09:45:34.337Z,94846.2344
2023-04-15T09:46:35.433Z,94846.3828
2023-04-15T09:47:36.492Z,94847.0781
2023-04-15T09:48:37.602Z,94847.7656
2023-04-15T09:49:38.578Z,94849.6953
2023-04-15T09:50:39.562Z,94848.7656
2023-04-15T09:51:41.340Z,94850.7656
2023-04-15T09:52:41.634Z,94852.8438
2023-04-15T09:53:42.710Z,94854.3828
2023-04-15T09:54:43.695Z,94855.8438
2023-04-15T09:55:44.745Z,94856.9219
2023-04-15T09:56:45.806Z,94857.4609
2023-04-15T09:57:46.828Z,94856.7656
2023-04-15T09:58:47.912Z,94858.0781
2023-04-15T09:59:48.873Z,94856.3047
2023-04-15T10:00:49.973Z,94856.4609
2023-04-15T10:01:51.075Z,94857.6953
2023-04-15T10:02:52.056Z,94857.2344
2023-04-15T10:03:53.115Z,94857.1562
2023-04-15T10:04:54.110Z,94859.5391
2023-04-15T10:05:55.163Z,94861.3828
2023-04-15T10:06:56.158Z,94863.0000
2023-04-15T10:07:57.247Z,94862.8438
2023-04-15T10:08:58.253Z,94861.5391
2023-04-15T10:09:59.271Z,94864.0781
2023-04-15T10:11:00.277Z,94865.3047
2023-04-15T10:12:01.324Z,94865.8438
2023-04-15T10:13:02.356Z,94864.6953
2023-04-15T10:14:03.745Z,94863.3828
2023-04-15T10:15:04.423Z,94862.8438
2023-04-15T10:16:05.483Z,94860.8438
2023-04-15T10:17:06.478Z,94861.2344
2023-04-15T10:18:07.766Z,94860.3047
2023-04-15T10:19:08.523Z,94861.2344
2023-04-15T10:20:09.516Z,94863.8438
2023-04-15T10:21:10.543Z,94865.7656
2023-04-15T10:22:11.616Z,94865.9219
2023-04-15T10:23:13.462Z,94866.0781
2023-04-15T10:24:13.696Z,94865.8438
2023-04-15T10:25:14.702Z,94866.5391
2023-04-15T10:26:15.734Z,94867.4609
2023-04-15T10:27:16.788Z,94868.3828
2023-04-15T10:28:17.810Z,94869.0000
2023-04-15T10:29:18.882Z,94870.2344
2023-04-15T10:30:19.899Z,94872.6172
2023-04-15T10:31:20.971Z,94872.2344
2023-04-15T10:32:21.991Z,94872.3828
2023-04-15T10:33:23.006Z,94873.1562
2023-04-15T10:34:24.061Z,94874.8438
2023-04-15T10:35:25.095Z,94877.2344
2023-04-15T10:36:26.108Z,94877.7656
2023-04-15T10:37:27.188Z,94878.2344
2023-04-15T10:38:28.206Z,94877.3828
2023-04-15T10:39:29.279Z,94876.3828
2023-04-15T10:40:30.302Z,94876.3828
2023-04-15T10:41:31.387Z,94876.8438
2023-04-15T10:42:32.385Z,94877.6953
2023-04-15T10:43:33.379Z,94876.1562
2023-04-15T10:44:34.471Z,94876.2344
2023-04-15T10:45:35.505Z,94875.8438
2023-04-15T10:46:36.564Z,94876.6172
2023-04-15T10:47:37.597Z,94876.1562
2023-04-15T10:48:38.610Z,94876.6172
2023-04-15T10:49:39.626Z,94878.5391
2023-04-15T10:50:40.732Z,94880.3047
2023-04-15T10:51:41.756Z,94879.5391
2023-04-15T10:52:42.738Z,94880.3828
2023-04-15T10:53:43.801Z,94881.4609
2023-04-15T10:54:44.806Z,94883.7656
2023-04-15T10:55:45.867Z,94884.2344
2023-04-15T10:56:46.899Z,94885.3047
2023-04-15T10:57:47.934Z,94885.5391
2023-04-15T10:58:48.998Z,94886.8438
2023-04-15T10:59:50.029Z,94887.1562
2023-04-15T11:00:51.068Z,94889.4609
2023-04-15T11:01:52.194Z,94891.6953
2023-04-15T11:02:53.161Z,94892.5391
2023-04-15T11:03:54.325Z,94894.6953
2023-04-15T11:04:55.560Z,94897.2344
2023-04-15T11:05:56.316Z,94898.9219
2023-04-15T11:06:57.303Z,94899.9219
2023-04-15T11:07:58.364Z,94900.1562
2023-04-15T11:08:59.463Z,94901.6172
2023-04-15T11:10:00.434Z,94903.5391
2023-04-15T11:11:01.512Z,94902.6172
2023-04-15T11:12:02.503Z,94903.7656
2023-04-15T11:13:03.552Z,94905.1562
2023-04-15T11:14:04.733Z,94907.7656
2023-04-15T11:15:05.605Z,94908.3828
2023-04-15T11:16:06.748Z,94910.6953
2023-04-15T11:17:07.760Z,94911.9219